Terminal Aerodrome Forecast
Issued by NWS

Home | Current Version | Previous Version | Text Only | Print | Product List | Glossary On
Versions: 1 2 3 4 5 6 7 8 9 10 11 12
558
FTUS44 KTSA 170528
TAFBVO
TAF
KBVO 170528Z 1706/1806 18011G18KT 6SM -RA OVC040
     FM170800 17010KT 5SM -DZ BR OVC015
     FM171100 18006KT 4SM BR OVC015
     FM171800 18006KT P6SM OVC025
     FM180000 20003KT 5SM BR BKN020=

USA.gov is the U.S. government's official web portal to all federal, state and local government web resources and services.